Time;durP1;ratioP1;P1;durP2;ratioP2;P2;SDS_P1;SDS_P2;PMS_P1;PMS_P2;Temp;Humidity;BMP_temperature;BMP_pressure;BME280_temperature;BME280_humidity;BME280_pressure;Samples;Min_cycle;Max_cycle;Signal;HPM_P1;HPM_P2
2023/10/09 00:01:44;;;;;;;4.37;2.80;;;11.90;99.90;;;;;;4201562;28;20268;-83
2023/10/09 00:03:51;;;;;;;4.90;2.60;;;11.90;99.90;;;;;;4207604;28;20308;-85
2023/10/09 00:05:55;;;;;;;3.93;2.47;;;11.80;99.90;;;;;;4202865;28;20275;-84
2023/10/09 00:07:57;;;;;;;4.80;2.73;;;11.90;99.90;;;;;;4201653;28;20293;-85
2023/10/09 00:09:59;;;;;;;4.90;2.90;;;11.80;99.90;;;;;;4197007;28;20222;-84
2023/10/09 00:12:10;;;;;;;4.63;2.73;;;11.90;99.90;;;;;;4203055;28;20238;-84
2023/10/09 00:14:12;;;;;;;4.50;2.60;;;11.90;99.90;;;;;;4203671;28;20232;-83
2023/10/09 00:16:14;;;;;;;6.10;2.70;;;11.80;99.90;;;;;;4195886;28;20213;-84
2023/10/09 00:18:21;;;;;;;4.67;2.43;;;11.80;99.90;;;;;;4204911;28;20232;-85
2023/10/09 00:20:37;;;;;;;4.90;3.00;;;11.90;99.90;;;;;;4204058;28;20227;-85
2023/10/09 00:22:43;;;;;;;5.37;3.00;;;11.80;99.90;;;;;;4199260;28;20280;-84
2023/10/09 00:24:49;;;;;;;4.67;2.57;;;11.90;99.90;;;;;;4213379;28;20205;-84
2023/10/09 00:26:55;;;;;;;8.17;3.30;;;12.20;99.90;;;;;;4205909;28;20629;-84
2023/10/09 00:28:57;;;;;;;6.73;2.60;;;11.90;99.90;;;;;;4204924;28;20233;-83
2023/10/09 00:30:59;;;;;;;3.83;2.90;;;11.90;99.90;;;;;;4207115;28;20231;-83
2023/10/09 00:33:07;;;;;;;5.97;3.03;;;12.10;99.90;;;;;;4204678;28;20206;-86
2023/10/09 00:37:33;;;;;;;3.83;2.40;;;11.90;99.90;;;;;;4206462;28;20773;-84
2023/10/09 00:39:43;;;;;;;4.93;2.60;;;11.80;99.90;;;;;;4202060;28;20194;-84
2023/10/09 00:41:45;;;;;;;4.53;2.67;;;11.90;99.90;;;;;;4203828;28;20205;-83
2023/10/09 00:43:49;;;;;;;4.50;2.63;;;11.80;99.90;;;;;;4201365;28;20276;-84
2023/10/09 00:45:51;;;;;;;3.87;2.40;;;11.80;99.90;;;;;;4201839;28;20210;-83
2023/10/09 00:47:56;;;;;;;3.60;2.37;;;11.80;99.90;;;;;;4203586;28;20208;-84
2023/10/09 00:50:00;;;;;;;4.40;2.50;;;11.80;99.90;;;;;;4202429;28;20327;-84
2023/10/09 00:52:02;;;;;;;5.10;2.67;;;11.80;99.90;;;;;;4205220;28;20267;-84
2023/10/09 00:54:14;;;;;;;4.20;2.60;;;11.80;99.90;;;;;;4206617;28;20198;-85
2023/10/09 00:56:28;;;;;;;6.37;2.87;;;11.80;99.90;;;;;;4200390;28;20213;-83
2023/10/09 00:58:35;;;;;;;5.47;2.80;;;11.60;99.90;;;;;;4205546;28;20206;-84
2023/10/09 01:00:46;;;;;;;2.87;2.40;;;11.80;99.90;;;;;;4199994;28;20226;-83
2023/10/09 01:03:12;;;;;;;5.03;2.50;;;11.80;99.90;;;;;;4201081;28;20561;-85
2023/10/09 01:05:19;;;;;;;4.43;2.33;;;11.80;99.90;;;;;;4199772;28;20214;-84
2023/10/09 01:07:25;;;;;;;3.43;2.60;;;11.80;99.90;;;;;;4202206;28;20294;-84
2023/10/09 01:09:36;;;;;;;4.70;2.50;;;11.90;99.90;;;;;;4201243;28;20209;-83
2023/10/09 01:11:48;;;;;;;5.00;2.30;;;11.90;99.90;;;;;;4194934;28;20568;-84
2023/10/09 01:13:59;;;;;;;4.03;2.60;;;11.90;99.90;;;;;;4198392;28;20202;-84
2023/10/09 01:16:06;;;;;;;5.10;3.10;;;11.80;99.90;;;;;;4204456;28;20615;-84
2023/10/09 01:18:08;;;;;;;4.53;2.63;;;11.90;99.90;;;;;;4204757;28;20234;-82
2023/10/09 01:20:16;;;;;;;5.57;2.80;;;11.90;99.90;;;;;;4201162;28;20227;-83
2023/10/09 01:22:21;;;;;;;4.63;2.80;;;11.90;99.90;;;;;;4183248;28;20233;-84
2023/10/09 01:24:26;;;;;;;5.33;3.07;;;11.90;99.90;;;;;;4203117;28;20230;-84
2023/10/09 01:26:32;;;;;;;6.77;3.20;;;11.90;99.90;;;;;;4202848;28;20210;-83
2023/10/09 01:28:34;;;;;;;4.63;2.70;;;11.90;99.90;;;;;;4203848;28;20217;-83
2023/10/09 01:30:41;;;;;;;5.87;2.80;;;12.00;99.90;;;;;;4203243;28;20237;-83
2023/10/09 01:32:45;;;;;;;5.37;2.80;;;11.90;99.90;;;;;;4188179;28;20213;-86
2023/10/09 01:34:49;;;;;;;5.73;3.30;;;11.90;99.90;;;;;;4203480;28;20209;-83
2023/10/09 01:36:54;;;;;;;5.03;2.90;;;11.90;99.90;;;;;;4204761;28;20208;-83
2023/10/09 01:38:56;;;;;;;5.93;2.90;;;11.90;99.90;;;;;;4202334;28;20208;-86
2023/10/09 01:41:06;;;;;;;5.20;2.73;;;11.90;99.90;;;;;;4203466;28;20225;-83
2023/10/09 01:43:10;;;;;;;8.17;3.20;;;11.90;99.90;;;;;;4198046;28;20207;-84
2023/10/09 01:45:12;;;;;;;6.23;3.00;;;11.90;99.90;;;;;;4206722;28;20263;-85
2023/10/09 01:47:18;;;;;;;4.80;3.40;;;11.90;99.90;;;;;;4203178;28;20210;-85
2023/10/09 01:49:21;;;;;;;3.70;2.57;;;11.90;99.90;;;;;;4200657;28;20244;-84
2023/10/09 01:51:23;;;;;;;4.83;2.67;;;11.90;99.90;;;;;;4199562;28;20227;-84
2023/10/09 01:53:30;;;;;;;4.23;2.43;;;11.90;99.90;;;;;;4203101;28;20207;-84
2023/10/09 01:55:35;;;;;;;3.87;2.50;;;11.90;99.90;;;;;;4199389;28;20216;-84
2023/10/09 01:57:39;;;;;;;4.97;2.80;;;11.90;99.90;;;;;;4198179;28;20309;-84
2023/10/09 01:59:44;;;;;;;4.33;2.87;;;11.90;99.90;;;;;;4204291;28;20197;-84
2023/10/09 02:01:47;;;;;;;4.50;2.67;;;11.90;99.90;;;;;;4202993;28;20232;-85
2023/10/09 02:03:51;;;;;;;4.43;2.90;;;11.90;99.90;;;;;;4209207;28;20217;-85
2023/10/09 02:05:59;;;;;;;4.73;2.60;;;12.00;99.90;;;;;;4217182;28;20204;-84
2023/10/09 02:08:02;;;;;;;4.30;2.60;;;11.90;99.90;;;;;;4220888;28;20208;-84
2023/10/09 02:10:04;;;;;;;4.80;2.80;;;12.20;99.90;;;;;;4208666;28;20223;-84
2023/10/09 02:12:08;;;;;;;4.07;2.53;;;11.90;99.90;;;;;;4197348;28;20207;-84
2023/10/09 02:14:19;;;;;;;4.83;2.60;;;11.90;99.90;;;;;;4199552;28;20251;-83
2023/10/09 02:16:28;;;;;;;5.00;2.90;;;11.90;99.90;;;;;;4199072;28;20234;-83
2023/10/09 02:18:52;;;;;;;5.30;2.97;;;11.90;99.90;;;;;;4201203;28;20201;-83
2023/10/09 02:21:13;;;;;;;5.17;2.47;;;11.90;99.90;;;;;;4200795;28;20249;-83
2023/10/09 02:23:17;;;;;;;5.13;2.60;;;12.00;99.90;;;;;;4200923;28;20209;-84
2023/10/09 02:25:21;;;;;;;4.40;2.60;;;11.90;99.90;;;;;;4206048;28;20205;-84
2023/10/09 02:29:47;;;;;;;4.30;2.83;;;11.90;99.90;;;;;;4201432;28;20345;-84
2023/10/09 02:31:51;;;;;;;4.97;3.03;;;11.90;99.90;;;;;;4202353;28;20252;-84
2023/10/09 02:33:55;;;;;;;5.23;2.87;;;12.20;99.90;;;;;;4201053;28;20213;-84
2023/10/09 02:35:59;;;;;;;4.87;2.80;;;11.90;99.90;;;;;;4205628;28;20255;-84
2023/10/09 02:38:03;;;;;;;5.00;3.10;;;11.90;99.90;;;;;;4204550;28;20482;-84
2023/10/09 02:40:08;;;;;;;5.47;2.77;;;11.90;99.90;;;;;;4203829;28;20305;-83
2023/10/09 02:42:23;;;;;;;4.93;2.77;;;11.90;99.90;;;;;;4202132;28;20293;-84
2023/10/09 02:44:25;;;;;;;6.57;2.80;;;11.90;99.90;;;;;;4204965;28;20275;-83
2023/10/09 02:46:32;;;;;;;5.20;3.10;;;12.10;99.90;;;;;;4203804;28;20207;-83
2023/10/09 02:48:36;;;;;;;2.83;2.37;;;11.90;99.90;;;;;;4208306;28;20265;-83
2023/10/09 02:50:44;;;;;;;3.63;2.43;;;11.90;99.90;;;;;;4190728;28;20218;-84
2023/10/09 02:52:47;;;;;;;4.07;2.60;;;11.90;99.90;;;;;;4205800;28;20576;-84
2023/10/09 02:54:59;;;;;;;4.20;2.43;;;11.90;99.90;;;;;;4201339;28;20718;-83
2023/10/09 02:57:07;;;;;;;3.40;2.20;;;11.90;99.90;;;;;;4207453;28;20215;-83
2023/10/09 02:59:09;;;;;;;4.47;2.80;;;11.80;99.90;;;;;;4207234;28;20232;-83
2023/10/09 03:01:10;;;;;;;4.13;2.63;;;11.90;99.90;;;;;;4208489;28;20310;-84
2023/10/09 03:03:18;;;;;;;4.30;2.40;;;11.90;99.90;;;;;;4212631;28;20518;-84
2023/10/09 03:05:20;;;;;;;5.03;2.63;;;11.90;99.90;;;;;;4214179;28;20246;-85
2023/10/09 03:07:23;;;;;;;3.90;2.57;;;12.00;99.90;;;;;;4214055;28;20256;-84
2023/10/09 03:09:27;;;;;;;5.03;3.23;;;12.00;99.90;;;;;;4207644;28;20626;-83
2023/10/09 03:11:32;;;;;;;5.60;3.30;;;12.00;99.90;;;;;;4206647;28;20226;-84
2023/10/09 03:13:33;;;;;;;4.60;2.90;;;12.00;99.90;;;;;;4212416;28;20224;-84
2023/10/09 03:15:35;;;;;;;5.43;3.00;;;12.00;99.90;;;;;;4212859;28;20245;-83
2023/10/09 03:17:36;;;;;;;5.43;3.30;;;12.30;99.90;;;;;;4211209;28;20627;-83
2023/10/09 03:19:40;;;;;;;5.90;3.00;;;12.00;99.90;;;;;;4202566;28;20198;-85
2023/10/09 03:21:42;;;;;;;6.30;3.00;;;12.00;99.90;;;;;;4200710;28;20627;-85
2023/10/09 03:23:49;;;;;;;5.10;3.20;;;11.90;99.90;;;;;;4205809;28;20210;-84
2023/10/09 03:25:51;;;;;;;6.43;3.10;;;12.00;99.90;;;;;;4204984;28;20270;-85
2023/10/09 03:27:56;;;;;;;5.53;3.10;;;12.00;99.90;;;;;;4208005;28;20241;-83
2023/10/09 03:29:59;;;;;;;6.10;3.30;;;11.90;99.90;;;;;;4207528;28;20247;-83
2023/10/09 03:32:00;;;;;;;4.80;2.90;;;11.90;99.90;;;;;;4196081;28;20658;-84
2023/10/09 03:34:02;;;;;;;4.80;3.00;;;12.10;99.90;;;;;;4205344;28;20252;-84
2023/10/09 03:36:09;;;;;;;5.13;2.93;;;11.90;99.90;;;;;;4203067;28;20202;-86
2023/10/09 03:38:16;;;;;;;3.97;2.70;;;11.90;99.90;;;;;;4199232;28;20563;-85
2023/10/09 03:40:19;;;;;;;4.50;2.97;;;11.90;99.90;;;;;;4190386;28;20263;-83
2023/10/09 03:42:22;;;;;;;5.53;3.07;;;11.90;99.90;;;;;;4193992;28;20198;-83
2023/10/09 03:44:28;;;;;;;5.67;3.30;;;11.90;99.90;;;;;;4208457;28;20692;-85
2023/10/09 03:46:33;;;;;;;5.50;3.43;;;11.90;99.90;;;;;;4201991;28;20541;-83
2023/10/09 03:48:35;;;;;;;4.50;2.90;;;11.90;99.90;;;;;;4211609;28;20229;-84
2023/10/09 03:50:38;;;;;;;5.40;3.00;;;11.90;99.90;;;;;;4210294;28;20209;-84
2023/10/09 03:52:40;;;;;;;6.47;3.70;;;11.90;99.90;;;;;;4207986;28;20212;-83
2023/10/09 03:54:44;;;;;;;4.90;3.30;;;11.90;99.90;;;;;;4200349;28;20657;-78
2023/10/09 03:56:49;;;;;;;4.67;3.23;;;11.90;99.90;;;;;;4206066;28;20209;-81
2023/10/09 03:58:53;;;;;;;5.37;3.00;;;11.90;99.90;;;;;;4199105;28;20198;-81
2023/10/09 04:00:55;;;;;;;5.30;2.97;;;12.20;99.90;;;;;;4199994;28;20593;-80
2023/10/09 04:02:56;;;;;;;5.87;3.00;;;11.90;99.90;;;;;;4208090;28;20289;-79
2023/10/09 04:04:58;;;;;;;4.77;3.10;;;11.90;99.90;;;;;;4201439;28;20257;-76
2023/10/09 04:07:00;;;;;;;4.53;3.10;;;12.00;99.90;;;;;;4200612;28;20219;-76
2023/10/09 04:09:27;;;;;;;5.17;3.57;;;11.90;99.90;;;;;;4202721;28;20201;-78
2023/10/09 04:11:29;;;;;;;3.83;2.70;;;11.90;99.90;;;;;;4200342;28;20230;-77
2023/10/09 04:13:35;;;;;;;4.53;2.90;;;12.00;99.90;;;;;;4202172;28;20222;-77
2023/10/09 04:15:37;;;;;;;6.60;3.63;;;11.90;99.90;;;;;;4208509;28;20229;-77
2023/10/09 04:17:42;;;;;;;5.57;3.37;;;11.90;99.90;;;;;;4208497;28;20687;-77
2023/10/09 04:19:48;;;;;;;5.77;3.47;;;11.90;99.90;;;;;;4197794;28;20246;-77
2023/10/09 04:21:50;;;;;;;4.93;3.20;;;11.90;99.90;;;;;;4202819;28;20640;-78
2023/10/09 04:24:09;;;;;;;5.93;3.20;;;11.90;99.90;;;;;;4207145;28;20202;-76
2023/10/09 04:26:14;;;;;;;5.60;3.40;;;11.90;99.90;;;;;;4207127;28;20193;-76
2023/10/09 04:28:19;;;;;;;6.67;3.40;;;11.90;99.90;;;;;;4207946;28;20198;-77
2023/10/09 04:30:23;;;;;;;4.37;2.90;;;11.90;99.90;;;;;;4196415;28;20237;-77
2023/10/09 04:32:25;;;;;;;5.70;3.40;;;11.90;99.90;;;;;;4201097;28;20291;-77
2023/10/09 04:34:28;;;;;;;5.50;3.40;;;11.90;99.90;;;;;;4204038;28;20213;-77
2023/10/09 04:36:45;;;;;;;4.40;2.97;;;11.90;99.90;;;;;;4195365;28;20281;-79
2023/10/09 04:39:16;;;;;;;5.80;3.10;;;11.90;99.90;;;;;;4188378;28;20198;-78
2023/10/09 04:41:27;;;;;;;5.13;2.97;;;11.90;99.90;;;;;;4193732;28;20242;-77
2023/10/09 04:43:29;;;;;;;4.23;3.00;;;11.90;99.90;;;;;;4198727;28;20233;-78
2023/10/09 04:50:11;;;;;;;5.53;2.97;;;11.90;99.90;;;;;;4195951;28;20237;-78
2023/10/09 04:52:19;;;;;;;4.67;2.93;;;12.00;99.90;;;;;;4200623;28;20209;-78
2023/10/09 04:54:38;;;;;;;6.50;3.50;;;11.90;99.90;;;;;;4193831;28;20190;-78
2023/10/09 04:56:52;;;;;;;7.60;3.97;;;12.00;99.90;;;;;;4195650;28;20732;-78
2023/10/09 04:59:03;;;;;;;7.67;4.27;;;12.20;99.90;;;;;;4196728;28;20778;-78
2023/10/09 05:01:12;;;;;;;6.00;3.53;;;11.90;99.90;;;;;;4199379;28;20221;-78
2023/10/09 05:03:25;;;;;;;7.47;3.87;;;11.90;99.90;;;;;;4190518;28;20289;-80
2023/10/09 05:07:54;;;;;;;5.53;3.40;;;11.90;99.90;;;;;;4197766;28;20206;-78
2023/10/09 05:09:55;;;;;;;5.70;3.53;;;11.90;99.90;;;;;;4196469;28;20229;-78
2023/10/09 05:12:15;;;;;;;7.40;3.47;;;11.90;99.90;;;;;;4201766;28;20196;-78
2023/10/09 05:14:17;;;;;;;6.23;3.53;;;11.90;99.90;;;;;;4200758;28;20292;-79
2023/10/09 05:16:25;;;;;;;6.23;4.10;;;11.90;99.90;;;;;;4200548;28;20197;-78
2023/10/09 05:18:27;;;;;;;7.20;3.97;;;11.90;99.90;;;;;;4178656;28;20623;-78
2023/10/09 05:22:58;;;;;;;6.87;3.97;;;11.90;99.90;;;;;;4192848;28;20201;-81
2023/10/09 05:24:59;;;;;;;6.37;4.23;;;11.90;99.90;;;;;;4201977;28;20225;-78
2023/10/09 05:27:17;;;;;;;6.27;3.93;;;11.90;99.90;;;;;;4197978;28;20670;-78
2023/10/09 05:29:19;;;;;;;6.57;4.20;;;11.90;99.90;;;;;;4198149;28;20232;-78
2023/10/09 05:31:56;;;;;;;7.97;4.23;;;11.90;99.90;;;;;;4200366;28;20297;-82
2023/10/09 05:34:01;;;;;;;8.27;4.13;;;11.90;99.90;;;;;;4198784;28;20608;-83
2023/10/09 05:36:17;;;;;;;9.00;4.93;;;11.90;99.90;;;;;;4199461;28;20233;-83
2023/10/09 05:38:23;;;;;;;10.27;4.87;;;11.90;99.90;;;;;;4196369;28;20240;-83
2023/10/09 05:40:30;;;;;;;8.23;4.17;;;11.90;99.90;;;;;;4203913;28;20220;-84
2023/10/09 05:42:42;;;;;;;7.87;4.47;;;11.90;99.90;;;;;;4214678;28;20208;-83
2023/10/09 05:45:44;;;;;;;8.50;4.63;;;11.90;99.90;;;;;;4212523;28;20218;-83
2023/10/09 05:49:54;;;;;;;9.37;4.70;;;11.80;99.90;;;;;;4193785;28;20218;-84
2023/10/09 05:52:27;;;;;;;11.87;5.73;;;11.90;99.90;;;;;;4197795;28;20203;-85
2023/10/09 06:03:55;;;;;;;12.90;4.80;;;11.90;99.90;;;;;;4152809;28;20288;-83
2023/10/09 06:06:03;;;;;;;9.80;4.57;;;11.90;99.90;;;;;;4155528;28;20251;-82
2023/10/09 06:08:06;;;;;;;11.27;4.67;;;12.00;99.90;;;;;;4136894;28;20216;-82
2023/10/09 06:10:18;;;;;;;10.50;4.73;;;12.00;99.90;;;;;;4197914;28;20556;-84
2023/10/09 06:12:50;;;;;;;10.13;5.30;;;12.00;99.90;;;;;;4197673;28;20210;-83
2023/10/09 06:15:04;;;;;;;9.37;5.60;;;12.00;99.90;;;;;;4198197;28;20204;-82
2023/10/09 06:17:22;;;;;;;13.20;7.20;;;12.00;99.90;;;;;;4203464;28;20221;-82
2023/10/09 06:19:26;;;;;;;12.17;6.20;;;12.20;99.90;;;;;;4198155;28;20258;-82
2023/10/09 06:21:39;;;;;;;10.10;5.60;;;11.90;99.90;;;;;;4193145;28;20570;-81
2023/10/09 06:26:23;;;;;;;8.47;5.43;;;11.60;99.90;;;;;;4199884;28;20241;-86
2023/10/09 06:28:32;;;;;;;13.63;5.67;;;11.80;99.90;;;;;;4204569;28;20198;-81
2023/10/09 06:30:47;;;;;;;11.77;5.20;;;11.80;99.90;;;;;;4205686;28;20949;-80
2023/10/09 06:32:57;;;;;;;9.00;4.97;;;11.80;99.90;;;;;;4211633;28;20210;-84
2023/10/09 06:35:15;;;;;;;10.17;5.00;;;11.80;99.90;;;;;;4199760;28;20225;-82
2023/10/09 06:37:34;;;;;;;12.37;5.97;;;11.80;99.90;;;;;;4201382;28;20201;-81
2023/10/09 06:39:50;;;;;;;9.37;5.23;;;11.80;99.90;;;;;;4211357;28;20214;-81
2023/10/09 06:42:08;;;;;;;10.43;5.60;;;11.80;99.90;;;;;;4206922;28;20217;-82
2023/10/09 06:44:51;;;;;;;11.30;6.00;;;11.80;99.90;;;;;;4202892;28;20194;-80
2023/10/09 06:46:52;;;;;;;9.60;5.57;;;11.80;99.90;;;;;;4205730;28;20205;-86
2023/10/09 06:48:56;;;;;;;9.77;5.73;;;11.80;99.90;;;;;;4203876;28;20574;-86
2023/10/09 06:51:07;;;;;;;8.67;5.77;;;11.80;99.90;;;;;;4214717;28;20225;-82
2023/10/09 06:55:34;;;;;;;14.37;6.57;;;11.90;99.90;;;;;;4193066;28;20217;-81
2023/10/09 06:57:48;;;;;;;14.53;7.80;;;12.00;99.90;;;;;;4200225;28;20647;-82
2023/10/09 07:02:26;;;;;;;11.70;6.00;;;11.90;99.90;;;;;;4201380;28;20588;-79
2023/10/09 07:06:51;;;;;;;13.40;6.80;;;12.00;99.90;;;;;;4202903;28;20276;-80
2023/10/09 07:09:15;;;;;;;15.63;7.50;;;12.10;99.90;;;;;;4200201;28;20830;-80
2023/10/09 07:11:57;;;;;;;15.47;7.63;;;12.20;99.90;;;;;;4198022;28;20313;-79
2023/10/09 07:13:52;;;;;;;17.60;7.97;;;12.20;99.90;;;;;;4199076;28;20205;-79
2023/10/09 07:18:23;;;;;;;20.70;8.00;;;12.20;99.90;;;;;;4193617;28;20303;-78
2023/10/09 07:20:39;;;;;;;26.30;9.47;;;12.20;99.90;;;;;;4198792;28;20228;-77
2023/10/09 07:22:52;;;;;;;26.43;10.03;;;12.30;99.90;;;;;;4205063;28;20687;-77
2023/10/09 07:24:57;;;;;;;24.23;9.60;;;12.30;99.90;;;;;;4203513;28;20228;-78
2023/10/09 07:27:06;;;;;;;24.73;9.90;;;12.40;99.90;;;;;;4204949;28;20194;-78
2023/10/09 07:29:21;;;;;;;21.17;9.50;;;12.40;99.90;;;;;;4196205;28;20250;-78
2023/10/09 07:31:27;;;;;;;21.00;10.17;;;12.40;99.90;;;;;;4183804;28;20326;-78
2023/10/09 07:33:51;;;;;;;22.70;9.93;;;12.40;99.90;;;;;;4203760;28;20650;-78
2023/10/09 07:35:57;;;;;;;24.70;10.10;;;12.50;99.90;;;;;;4202812;28;20196;-78
2023/10/09 07:38:02;;;;;;;22.97;10.37;;;12.50;99.90;;;;;;4205072;28;20202;-78
2023/10/09 07:40:07;;;;;;;26.97;12.73;;;12.50;99.90;;;;;;4205052;28;20246;-79
2023/10/09 07:42:33;;;;;;;25.00;11.17;;;12.50;99.90;;;;;;4193559;28;20211;-78
2023/10/09 07:44:36;;;;;;;23.57;11.60;;;12.50;99.90;;;;;;4210930;28;20201;-78
2023/10/09 07:46:52;;;;;;;24.67;11.73;;;12.60;99.90;;;;;;4203022;28;20209;-78
2023/10/09 07:48:55;;;;;;;27.27;11.83;;;12.60;99.90;;;;;;4198570;28;20204;-78
2023/10/09 07:50:58;;;;;;;26.70;11.73;;;12.60;99.90;;;;;;4209210;28;20667;-78
2023/10/09 07:53:14;;;;;;;27.83;10.93;;;12.70;99.90;;;;;;4201510;28;20210;-78
2023/10/09 07:55:29;;;;;;;26.20;12.13;;;12.70;99.90;;;;;;4203159;28;20193;-78
2023/10/09 07:57:39;;;;;;;26.90;11.47;;;12.70;99.90;;;;;;4201984;28;20610;-78
2023/10/09 07:59:49;;;;;;;34.20;12.47;;;12.80;99.90;;;;;;4203605;28;20253;-78
2023/10/09 08:01:53;;;;;;;32.13;13.17;;;12.80;99.90;;;;;;4197833;28;20208;-78
2023/10/09 08:04:04;;;;;;;33.00;12.80;;;12.80;99.90;;;;;;4197345;28;20229;-78
2023/10/09 08:06:29;;;;;;;25.23;12.03;;;12.80;99.90;;;;;;4185588;28;20264;-78
2023/10/09 08:08:39;;;;;;;30.80;11.57;;;12.90;99.90;;;;;;4198028;28;20208;-78
2023/10/09 08:13:49;;;;;;;30.43;12.47;;;12.90;99.90;;;;;;4173615;28;20866;-78
2023/10/09 08:15:34;;;;;;;25.97;11.27;;;13.10;99.90;;;;;;4188868;28;20208;-78
2023/10/09 08:17:37;;;;;;;33.27;13.43;;;12.90;99.90;;;;;;4202035;28;20201;-78
2023/10/09 08:19:53;;;;;;;33.53;12.87;;;12.90;99.90;;;;;;4180672;28;20216;-78
2023/10/09 08:22:17;;;;;;;29.63;13.13;;;12.90;99.90;;;;;;4193536;28;20210;-78
2023/10/09 08:26:47;;;;;;;36.40;13.37;;;13.00;99.90;;;;;;4192557;28;20220;-78
2023/10/09 08:28:48;;;;;;;37.70;13.37;;;13.00;99.90;;;;;;4201963;28;20632;-78
2023/10/09 08:31:02;;;;;;;36.40;14.17;;;13.00;99.90;;;;;;4191509;28;20261;-79
2023/10/09 08:33:05;;;;;;;31.27;12.20;;;13.00;99.90;;;;;;4201158;28;20320;-79
2023/10/09 08:35:29;;;;;;;36.17;12.47;;;13.00;99.90;;;;;;4201502;28;20677;-79
2023/10/09 08:37:30;;;;;;;35.57;13.43;;;13.10;99.90;;;;;;4199275;28;20235;-79
2023/10/09 08:39:35;;;;;;;33.30;13.17;;;13.10;99.90;;;;;;4201340;28;20200;-79
2023/10/09 08:41:37;;;;;;;27.13;11.67;;;13.10;99.90;;;;;;4199990;28;20200;-79
2023/10/09 08:43:41;;;;;;;35.10;12.83;;;13.10;99.90;;;;;;4206749;28;20218;-79
2023/10/09 08:45:47;;;;;;;27.57;12.33;;;13.10;99.90;;;;;;4206841;28;20211;-79
2023/10/09 08:47:52;;;;;;;30.33;13.00;;;13.00;99.90;;;;;;4199626;28;20229;-78
2023/10/09 08:49:54;;;;;;;31.60;12.53;;;13.10;99.90;;;;;;4203958;28;20317;-79
2023/10/09 08:52:03;;;;;;;35.23;12.90;;;13.10;99.90;;;;;;4204264;28;20267;-78
2023/10/09 08:54:11;;;;;;;38.83;13.60;;;13.20;99.90;;;;;;4194765;28;20203;-79
2023/10/09 08:56:19;;;;;;;40.10;14.23;;;13.20;99.90;;;;;;4199545;28;20659;-79
2023/10/09 08:58:24;;;;;;;38.20;15.80;;;13.20;99.90;;;;;;4197763;28;20295;-77
2023/10/09 09:00:33;;;;;;;32.17;14.07;;;13.20;99.90;;;;;;4203456;28;20238;-77
2023/10/09 09:02:36;;;;;;;38.07;14.23;;;13.20;99.90;;;;;;4201359;28;20211;-77
2023/10/09 09:04:39;;;;;;;35.07;14.00;;;13.30;99.90;;;;;;4200738;28;20208;-77
2023/10/09 09:06:41;;;;;;;43.90;14.73;;;13.30;99.90;;;;;;4205234;28;20227;-78
2023/10/09 09:08:45;;;;;;;31.23;14.10;;;13.30;99.90;;;;;;4205148;28;20773;-78
2023/10/09 09:10:50;;;;;;;31.40;13.53;;;13.30;99.90;;;;;;4199239;28;20247;-78
2023/10/09 09:13:00;;;;;;;32.77;13.47;;;13.30;99.90;;;;;;4196258;28;20202;-79
2023/10/09 09:15:02;;;;;;;33.33;14.13;;;13.30;99.90;;;;;;4198899;28;20642;-79
2023/10/09 09:17:10;;;;;;;39.80;14.57;;;13.40;99.90;;;;;;4194146;28;20765;-79
2023/10/09 09:19:18;;;;;;;31.53;13.43;;;13.40;99.90;;;;;;4196156;28;20580;-79
2023/10/09 09:21:22;;;;;;;36.67;14.93;;;13.40;99.90;;;;;;4182479;28;20240;-78
2023/10/09 09:23:26;;;;;;;34.27;13.77;;;13.40;99.90;;;;;;4199619;28;20279;-79
2023/10/09 09:25:44;;;;;;;33.63;14.30;;;13.40;99.90;;;;;;4202571;28;20232;-79
2023/10/09 09:27:52;;;;;;;33.43;13.23;;;13.40;99.90;;;;;;4196701;28;20298;-79
2023/10/09 09:29:54;;;;;;;31.83;14.00;;;13.40;99.90;;;;;;4201964;28;20320;-79
2023/10/09 09:32:06;;;;;;;32.30;14.10;;;13.40;99.90;;;;;;4200935;28;20220;-78
2023/10/09 09:34:16;;;;;;;34.83;14.00;;;13.50;99.90;;;;;;4196518;28;20295;-79
2023/10/09 09:36:26;;;;;;;37.07;13.83;;;13.50;99.90;;;;;;4196536;28;20218;-80
2023/10/09 09:38:28;;;;;;;30.83;13.20;;;13.30;99.90;;;;;;4199911;28;20204;-80
2023/10/09 09:40:33;;;;;;;31.90;13.73;;;13.60;99.90;;;;;;4188926;28;20315;-77
2023/10/09 09:42:44;;;;;;;42.07;15.03;;;13.60;99.90;;;;;;4195412;28;20207;-77
2023/10/09 09:44:46;;;;;;;36.60;13.57;;;13.60;99.90;;;;;;4199274;28;20218;-79
2023/10/09 09:46:49;;;;;;;36.00;14.53;;;13.70;99.90;;;;;;4189931;28;20613;-77
2023/10/09 09:48:54;;;;;;;41.27;14.07;;;13.60;99.90;;;;;;4203479;28;20204;-76
2023/10/09 09:50:55;;;;;;;32.63;13.77;;;13.70;99.90;;;;;;4198719;28;20315;-76
2023/10/09 09:52:57;;;;;;;39.77;14.87;;;13.70;99.90;;;;;;4200418;28;20307;-74
2023/10/09 09:54:58;;;;;;;35.77;14.40;;;13.80;99.90;;;;;;4189971;28;20204;-75
2023/10/09 09:57:08;;;;;;;41.87;15.27;;;13.80;99.90;;;;;;4198196;28;20690;-75
2023/10/09 09:59:21;;;;;;;36.50;14.50;;;13.80;99.90;;;;;;4195591;28;20253;-76
2023/10/09 10:01:26;;;;;;;35.20;14.23;;;13.90;99.90;;;;;;4200236;28;20232;-77
2023/10/09 10:03:32;;;;;;;33.53;14.07;;;13.90;99.90;;;;;;4200987;28;20223;-76
2023/10/09 10:05:36;;;;;;;38.67;14.90;;;14.00;99.90;;;;;;4200985;28;20857;-75
2023/10/09 10:07:42;;;;;;;35.87;14.50;;;14.10;99.90;;;;;;4200435;28;20204;-77
2023/10/09 10:09:45;;;;;;;39.67;14.30;;;14.20;99.90;;;;;;4202916;28;20300;-76
2023/10/09 10:11:51;;;;;;;32.47;13.80;;;14.20;99.90;;;;;;4186669;28;20265;-77
2023/10/09 10:14:00;;;;;;;27.83;12.97;;;14.30;99.90;;;;;;4199797;28;20661;-76
2023/10/09 10:16:13;;;;;;;29.37;12.40;;;14.30;99.90;;;;;;4197689;28;20201;-76
2023/10/09 10:18:19;;;;;;;34.77;13.40;;;14.40;99.90;;;;;;4189490;28;20219;-77
2023/10/09 10:20:31;;;;;;;32.20;13.43;;;14.40;99.90;;;;;;4190190;28;20223;-76
2023/10/09 10:22:32;;;;;;;32.30;14.20;;;14.40;99.90;;;;;;4198417;28;20210;-76
2023/10/09 10:24:57;;;;;;;28.63;12.90;;;14.40;99.90;;;;;;4199544;28;20260;-77
2023/10/09 10:27:24;;;;;;;35.97;13.90;;;14.40;99.90;;;;;;4198234;28;20715;-76
2023/10/09 10:29:32;;;;;;;36.13;14.27;;;14.40;99.90;;;;;;4197765;28;20711;-77
2023/10/09 10:31:54;;;;;;;37.27;14.20;;;14.40;99.90;;;;;;4192255;28;20221;-76
2023/10/09 10:34:10;;;;;;;34.43;13.07;;;14.40;99.90;;;;;;4194046;28;20201;-77
2023/10/09 10:36:22;;;;;;;34.30;15.43;;;14.40;99.90;;;;;;4195935;28;20205;-76
2023/10/09 10:38:38;;;;;;;27.87;13.30;;;14.40;99.90;;;;;;4193537;28;20233;-76
2023/10/09 10:40:40;;;;;;;35.63;13.70;;;14.30;99.90;;;;;;4191476;28;20232;-76
2023/10/09 10:43:09;;;;;;;39.77;14.13;;;14.30;99.90;;;;;;4200189;28;20200;-76
2023/10/09 10:45:34;;;;;;;31.77;13.10;;;14.30;99.90;;;;;;4197988;28;20300;-76
2023/10/09 10:47:36;;;;;;;26.57;12.00;;;14.30;99.90;;;;;;4196986;28;20259;-76
2023/10/09 10:49:40;;;;;;;32.10;12.20;;;14.30;99.90;;;;;;4199730;28;20263;-76
2023/10/09 10:51:48;;;;;;;35.70;13.20;;;14.20;99.90;;;;;;4194826;28;20222;-77
2023/10/09 10:54:26;;;;;;;32.80;13.27;;;14.20;99.90;;;;;;4199829;28;20192;-75
2023/10/09 10:56:18;;;;;;;34.33;14.00;;;14.20;99.90;;;;;;4201295;28;20295;-76
2023/10/09 10:58:24;;;;;;;27.47;12.03;;;14.20;99.90;;;;;;4207031;28;20191;-75
2023/10/09 11:02:47;;;;;;;22.63;10.70;;;14.20;99.90;;;;;;4199506;28;20297;-75
2023/10/09 11:04:54;;;;;;;27.57;11.83;;;14.20;99.90;;;;;;4200054;28;20258;-75
2023/10/09 11:07:06;;;;;;;24.27;11.23;;;14.20;99.90;;;;;;4180802;28;20234;-75
2023/10/09 11:09:20;;;;;;;28.47;11.53;;;14.20;99.90;;;;;;4198459;28;20668;-75
2023/10/09 11:11:23;;;;;;;36.03;13.40;;;14.20;99.90;;;;;;4202517;28;20225;-75
2023/10/09 11:13:34;;;;;;;23.97;11.07;;;14.20;99.90;;;;;;4200354;28;20201;-75
2023/10/09 11:15:45;;;;;;;21.90;10.50;;;14.20;99.90;;;;;;4201460;28;20228;-76
2023/10/09 11:18:04;;;;;;;28.90;12.53;;;14.20;99.90;;;;;;4205234;28;20841;-75
2023/10/09 11:22:28;;;;;;;22.23;10.27;;;14.30;99.90;;;;;;4199502;28;20308;-76
2023/10/09 11:24:34;;;;;;;32.37;11.67;;;14.30;99.90;;;;;;4196506;28;20553;-76
2023/10/09 11:26:41;;;;;;;25.77;11.60;;;14.30;99.90;;;;;;4202018;28;20696;-76
2023/10/09 11:28:48;;;;;;;21.07;9.90;;;14.30;99.90;;;;;;4200728;28;20209;-76
2023/10/09 11:30:55;;;;;;;34.57;13.20;;;14.30;99.90;;;;;;4200496;28;20235;-76
2023/10/09 11:33:07;;;;;;;30.03;12.77;;;14.30;99.90;;;;;;4201575;28;20225;-76
2023/10/09 11:35:19;;;;;;;23.53;10.73;;;14.30;99.90;;;;;;4198986;28;20201;-76
2023/10/09 11:37:38;;;;;;;27.53;11.97;;;14.30;99.90;;;;;;4201198;28;20260;-77
2023/10/09 11:39:50;;;;;;;24.73;10.37;;;14.30;99.90;;;;;;4199659;28;20637;-77
2023/10/09 11:42:04;;;;;;;20.07;9.97;;;14.30;99.90;;;;;;4202280;28;20201;-76
2023/10/09 11:44:06;;;;;;;17.50;9.83;;;14.30;99.90;;;;;;4205138;28;20211;-76
2023/10/09 11:46:11;;;;;;;20.00;10.03;;;14.30;99.90;;;;;;4202709;28;20260;-76
2023/10/09 11:48:31;;;;;;;24.60;10.43;;;14.40;99.90;;;;;;4203904;28;20213;-77